createdAt,value
2018-07-19T00:00:03.634Z,49.91
2018-07-19T00:02:33.992Z,49.85
2018-07-19T00:05:04.461Z,49.75
2018-07-19T00:07:34.411Z,49.84
2018-07-19T00:10:04.779Z,49.90
2018-07-19T00:12:34.766Z,49.80
2018-07-19T00:15:05.419Z,50.09
2018-07-19T00:17:35.565Z,50.09
2018-07-19T00:20:06.866Z,50.82
2018-07-19T00:22:36.902Z,50.34
2018-07-19T00:25:07.637Z,50.63
2018-07-19T00:27:37.781Z,50.99
2018-07-19T00:30:09.074Z,51.01
2018-07-19T00:32:39.223Z,50.47
2018-07-19T00:35:10.453Z,50.86
2018-07-19T00:37:41.318Z,51.02
2018-07-19T00:40:11.294Z,50.55
2018-07-19T00:42:41.881Z,50.57
2018-07-19T00:45:12.234Z,50.60
2018-07-19T00:47:42.574Z,51.04
2018-07-19T00:50:12.702Z,51.47
2018-07-19T00:52:42.844Z,51.39
2018-07-19T00:55:13.180Z,50.73
2018-07-19T00:57:43.374Z,51.47
2018-07-19T01:00:13.862Z,51.47
2018-07-19T01:02:44.120Z,51.74
2018-07-19T01:05:14.393Z,51.35
2018-07-19T01:07:45.083Z,51.88
2018-07-19T01:10:15.415Z,51.17
2018-07-19T01:12:45.939Z,51.33
2018-07-19T01:15:16.364Z,51.39
2018-07-19T01:17:46.633Z,51.78
2018-07-19T01:20:17.015Z,51.40
2018-07-19T01:22:47.926Z,51.70
2018-07-19T01:25:18.015Z,51.35
2018-07-19T01:27:48.138Z,50.82
2018-07-19T01:30:18.477Z,50.60
2018-07-19T01:32:48.923Z,51.19
2018-07-19T01:35:19.316Z,51.09
2018-07-19T01:37:49.875Z,51.05
2018-07-19T01:40:20.450Z,50.12
2018-07-19T01:42:50.471Z,50.05
2018-07-19T01:45:20.514Z,49.37
2018-07-19T01:47:50.681Z,49.44
2018-07-19T01:50:21.082Z,48.88
2018-07-19T01:52:51.357Z,48.98
2018-07-19T01:55:21.502Z,49.69
2018-07-19T01:57:52.022Z,49.02
2018-07-19T02:00:22.535Z,48.94
2018-07-19T02:02:53.399Z,48.40
2018-07-19T02:05:23.778Z,48.65
2018-07-19T02:07:53.901Z,47.90
2018-07-19T02:10:24.010Z,48.18
2018-07-19T02:12:53.891Z,47.87
2018-07-19T02:15:24.751Z,48.37
2018-07-19T02:17:55.119Z,48.33
2018-07-19T02:20:25.293Z,48.23
2018-07-19T02:22:55.243Z,47.49
2018-07-19T02:25:25.686Z,47.62
2018-07-19T02:27:56.093Z,47.76
2018-07-19T02:30:26.226Z,47.89
2018-07-19T02:32:56.668Z,47.38
2018-07-19T02:35:27.198Z,47.36
2018-07-19T02:37:57.802Z,47.42
2018-07-19T02:40:28.236Z,47.52
2018-07-19T02:42:58.230Z,47.41
2018-07-19T02:45:28.678Z,47.81
2018-07-19T02:47:58.808Z,48.03
2018-07-19T02:50:29.414Z,47.96
2018-07-19T02:52:59.655Z,47.36
2018-07-19T02:55:30.518Z,48.01
2018-07-19T02:58:00.831Z,48.02
2018-07-19T03:00:31.284Z,47.75
2018-07-19T03:03:01.794Z,47.18
2018-07-19T03:05:32.125Z,47.76
2018-07-19T03:08:02.427Z,47.32
2018-07-19T03:10:33.464Z,47.31
2018-07-19T03:13:03.836Z,47.74
2018-07-19T03:15:34.303Z,47.27
2018-07-19T03:18:04.773Z,47.14
2018-07-19T03:20:35.294Z,46.81
2018-07-19T03:23:05.617Z,47.47
2018-07-19T03:25:35.924Z,47.17
2018-07-19T03:28:06.312Z,47.10
2018-07-19T03:30:36.847Z,47.42
2018-07-19T03:33:07.288Z,47.14
2018-07-19T03:35:37.707Z,47.03
2018-07-19T03:38:08.981Z,46.77
2018-07-19T03:40:39.758Z,46.89
2018-07-19T03:43:09.954Z,47.68
2018-07-19T03:45:40.107Z,47.80
2018-07-19T03:48:11.219Z,47.03
2018-07-19T03:50:42.378Z,47.82
2018-07-19T03:53:12.706Z,47.88
2018-07-19T03:55:43.186Z,47.23
2018-07-19T03:58:13.351Z,47.66
2018-07-19T04:00:43.566Z,48.00
2018-07-19T04:03:14.454Z,47.32
2018-07-19T04:05:44.789Z,47.31
2018-07-19T04:08:15.164Z,47.34
2018-07-19T04:10:46.406Z,47.86
2018-07-19T04:13:16.297Z,47.84
2018-07-19T04:15:46.702Z,47.10
2018-07-19T04:18:16.839Z,47.25
2018-07-19T04:20:47.036Z,48.04
2018-07-19T04:23:17.139Z,48.12
2018-07-19T04:25:47.205Z,47.99
2018-07-19T04:28:17.780Z,47.34
2018-07-19T04:30:48.486Z,47.31
2018-07-19T04:33:18.638Z,47.84
2018-07-19T04:35:48.682Z,48.25
2018-07-19T04:38:19.053Z,47.64
2018-07-19T04:40:49.377Z,46.78
2018-07-19T04:43:20.298Z,46.86
2018-07-19T04:45:50.435Z,47.52
2018-07-19T04:48:20.879Z,47.54
2018-07-19T04:50:51.226Z,47.57
2018-07-19T04:53:21.706Z,47.62
2018-07-19T04:55:53.046Z,47.19
2018-07-19T04:58:23.115Z,46.86
2018-07-19T05:00:53.558Z,47.49
2018-07-19T05:03:24.083Z,47.44
2018-07-19T05:05:55.193Z,47.39
2018-07-19T05:08:25.461Z,47.60
2018-07-19T05:10:55.867Z,47.61
2018-07-19T05:13:26.706Z,47.01
2018-07-19T05:15:58.558Z,47.29
2018-07-19T05:18:30.075Z,47.84
2018-07-19T05:21:00.250Z,47.32
2018-07-19T05:23:30.901Z,47.61
2018-07-19T05:26:01.715Z,47.28
2018-07-19T05:28:32.018Z,47.32
2018-07-19T05:31:02.241Z,48.14
2018-07-19T05:33:33.043Z,47.29
2018-07-19T05:36:03.393Z,47.53
2018-07-19T05:38:33.703Z,47.62
2018-07-19T05:41:04.049Z,48.14
2018-07-19T05:43:34.875Z,47.76
2018-07-19T05:46:05.694Z,48.51
2018-07-19T05:48:36.155Z,47.84
2018-07-19T05:51:06.772Z,48.07
2018-07-19T05:53:37.065Z,47.54
2018-07-19T05:56:07.192Z,48.47
2018-07-19T05:58:37.402Z,47.64
2018-07-19T06:01:08.030Z,47.72
2018-07-19T06:03:38.415Z,47.72
2018-07-19T06:06:08.773Z,48.05
2018-07-19T06:08:39.333Z,47.69
2018-07-19T06:11:10.063Z,48.37
2018-07-19T06:13:40.432Z,47.88
2018-07-19T06:16:10.518Z,48.01
2018-07-19T06:18:41.720Z,48.15
2018-07-19T06:21:12.365Z,48.09
2018-07-19T06:23:42.753Z,49.28
2018-07-19T06:26:16.791Z,48.32
2018-07-19T06:28:47.884Z,48.64
2018-07-19T06:31:18.612Z,48.33
2018-07-19T06:33:49.121Z,49.24
2018-07-19T06:36:19.496Z,48.93
2018-07-19T06:38:49.906Z,49.17
2018-07-19T06:41:20.274Z,48.76
2018-07-19T06:43:50.603Z,49.22
2018-07-19T06:46:21.385Z,48.92
2018-07-19T06:48:51.629Z,49.27
2018-07-19T06:51:21.884Z,49.35
2018-07-19T06:53:52.306Z,48.60
2018-07-19T06:56:22.530Z,48.96
2018-07-19T06:58:52.790Z,48.58
2018-07-19T07:01:23.060Z,49.02
2018-07-19T07:03:53.747Z,49.32
2018-07-19T07:06:24.093Z,48.68
2018-07-19T07:08:54.464Z,48.76
2018-07-19T07:11:24.836Z,49.27
2018-07-19T07:13:55.501Z,49.32
2018-07-19T07:16:26.103Z,49.27
2018-07-19T07:18:56.467Z,49.38
2018-07-19T07:21:27.016Z,49.28
2018-07-19T07:23:58.134Z,49.44
2018-07-19T07:26:28.487Z,48.90
2018-07-19T07:28:58.703Z,48.91
2018-07-19T07:31:28.887Z,48.89
2018-07-19T07:33:59.061Z,49.56
2018-07-19T07:36:29.581Z,49.60
2018-07-19T07:39:01.938Z,49.37
2018-07-19T07:41:32.316Z,49.49
2018-07-19T07:44:02.799Z,49.63
2018-07-19T07:46:33.248Z,49.03
2018-07-19T07:49:03.630Z,49.52
2018-07-19T07:51:33.647Z,49.19
2018-07-19T07:54:04.194Z,48.46
2018-07-19T07:56:34.874Z,48.50
2018-07-19T07:59:05.552Z,49.12
2018-07-19T08:01:35.804Z,49.17
2018-07-19T08:04:06.381Z,48.81
2018-07-19T08:06:36.488Z,48.07
2018-07-19T08:09:08.065Z,47.84
2018-07-19T08:11:39.078Z,47.35
2018-07-19T08:14:09.504Z,47.78
2018-07-19T08:16:40.243Z,48.24
2018-07-19T08:19:10.524Z,48.03
2018-07-19T08:21:41.346Z,47.28
2018-07-19T08:24:11.826Z,47.03
2018-07-19T08:26:42.162Z,47.13
2018-07-19T08:29:12.475Z,47.47
2018-07-19T08:31:43.015Z,47.10
2018-07-19T08:34:13.470Z,46.88
2018-07-19T08:36:43.652Z,46.56
2018-07-19T08:39:14.894Z,47.27
2018-07-19T08:41:45.452Z,46.60
2018-07-19T08:44:15.875Z,46.66
2018-07-19T08:46:46.487Z,46.85
2018-07-19T08:49:16.938Z,47.08
2018-07-19T08:51:47.565Z,47.03
2018-07-19T08:54:18.141Z,47.02
2018-07-19T08:56:48.945Z,46.85
2018-07-19T08:59:19.413Z,46.87
2018-07-19T09:01:49.663Z,46.29
2018-07-19T09:04:20.994Z,46.92
2018-07-19T09:06:51.439Z,46.78
2018-07-19T09:09:21.613Z,46.50
2018-07-19T09:11:51.906Z,45.89
2018-07-19T09:14:22.443Z,45.74
2018-07-19T09:16:53.166Z,46.28
2018-07-19T09:19:23.489Z,45.48
2018-07-19T09:21:54.261Z,44.70
2018-07-19T09:24:24.718Z,44.97
2018-07-19T09:26:55.151Z,45.05
2018-07-19T09:29:25.646Z,44.46
2018-07-19T09:31:56.448Z,44.05
2018-07-19T09:34:26.967Z,44.12
2018-07-19T09:36:58.051Z,44.20
2018-07-19T09:39:28.735Z,43.72
2018-07-19T09:41:58.733Z,43.18
2018-07-19T09:44:29.820Z,42.15
2018-07-19T09:47:00.100Z,42.47
2018-07-19T09:49:30.307Z,43.33
2018-07-19T09:52:00.427Z,43.03
2018-07-19T09:54:41.459Z,43.14
2018-07-19T09:57:11.465Z,42.56
2018-07-19T09:59:43.441Z,43.02
2018-07-19T10:02:13.504Z,42.15
2018-07-19T10:04:43.531Z,42.25
2018-07-19T10:07:14.081Z,42.30
2018-07-19T10:09:44.464Z,41.29
2018-07-19T10:12:15.766Z,41.39
2018-07-19T10:14:46.186Z,40.80
2018-07-19T10:17:16.462Z,40.82
2018-07-19T10:19:46.770Z,41.42
2018-07-19T10:22:16.650Z,41.12
2018-07-19T10:24:46.752Z,41.01
2018-07-19T10:27:19.902Z,39.99
2018-07-19T10:29:50.473Z,41.05
2018-07-19T10:32:20.619Z,40.53
2018-07-19T10:34:50.952Z,40.07
2018-07-19T10:37:21.163Z,39.57
2018-07-19T10:39:51.314Z,40.33
2018-07-19T10:42:29.896Z,40.03
2018-07-19T10:45:00.020Z,39.99
2018-07-19T10:47:30.658Z,39.45
2018-07-19T10:50:00.824Z,39.21
2018-07-19T10:52:30.879Z,40.08
2018-07-19T10:55:00.891Z,39.56
2018-07-19T10:57:31.135Z,39.05
2018-07-19T11:00:01.337Z,39.06
2018-07-19T11:02:31.254Z,38.81
2018-07-19T11:05:03.999Z,38.81
2018-07-19T11:07:34.097Z,38.84
2018-07-19T11:10:04.382Z,38.45
2018-07-19T11:12:34.970Z,37.89
2018-07-19T11:15:05.503Z,38.37
2018-07-19T11:17:38.277Z,37.40
2018-07-19T11:20:09.579Z,37.51
2018-07-19T11:22:40.053Z,37.83
2018-07-19T11:25:09.932Z,37.79
2018-07-19T11:27:39.921Z,37.29
2018-07-19T11:30:09.532Z,37.20
2018-07-19T11:32:39.448Z,36.86
2018-07-19T11:35:09.619Z,36.40
2018-07-19T11:37:40.353Z,36.07
2018-07-19T11:40:10.946Z,36.29
2018-07-19T11:42:41.209Z,35.58
2018-07-19T11:45:11.429Z,35.91
2018-07-19T11:47:41.549Z,35.95
2018-07-19T11:50:11.979Z,35.63
2018-07-19T11:52:42.042Z,35.87
2018-07-19T11:55:12.733Z,36.27
2018-07-19T11:57:43.826Z,35.84
2018-07-19T12:00:14.262Z,35.12
2018-07-19T12:02:44.407Z,34.65
2018-07-19T12:05:14.742Z,34.66
2018-07-19T12:07:45.218Z,35.67
2018-07-19T12:10:15.346Z,34.74
2018-07-19T12:12:45.403Z,34.46
2018-07-19T12:15:15.446Z,34.68
2018-07-19T12:17:45.608Z,35.12
2018-07-19T12:20:15.368Z,34.92
2018-07-19T12:22:45.283Z,34.19
2018-07-19T12:25:15.295Z,34.11
2018-07-19T12:27:45.578Z,34.67
2018-07-19T12:30:15.425Z,33.88
2018-07-19T12:32:45.433Z,34.31
2018-07-19T12:35:15.521Z,33.73
2018-07-19T12:37:45.484Z,33.29
2018-07-19T12:40:16.376Z,33.53
2018-07-19T12:42:46.153Z,33.65
2018-07-19T12:45:16.138Z,32.96
2018-07-19T12:47:45.981Z,33.00
2018-07-19T12:50:16.001Z,33.16
2018-07-19T12:52:46.070Z,32.75
2018-07-19T12:55:16.078Z,32.92
2018-07-19T12:57:46.029Z,31.55
2018-07-19T13:00:21.849Z,31.06
2018-07-19T13:02:51.890Z,31.85
2018-07-19T13:05:21.746Z,32.02
2018-07-19T13:07:51.639Z,32.57
2018-07-19T13:10:21.696Z,32.55
2018-07-19T13:12:52.213Z,32.59
2018-07-19T13:15:23.386Z,31.50
2018-07-19T13:17:53.667Z,31.71
2018-07-19T13:20:23.805Z,30.95
2018-07-19T13:22:53.756Z,31.37
2018-07-19T13:25:24.858Z,30.72
2018-07-19T13:27:54.880Z,31.37
2018-07-19T13:30:24.854Z,31.54
2018-07-19T13:32:54.798Z,31.84
2018-07-19T13:35:24.786Z,31.70
2018-07-19T13:37:55.012Z,31.56
2018-07-19T13:40:24.891Z,31.47
2018-07-19T13:42:54.774Z,30.91
2018-07-19T13:45:26.284Z,31.18
2018-07-19T13:47:56.081Z,29.99
2018-07-19T13:50:25.887Z,30.32
2018-07-19T13:53:06.564Z,29.42
2018-07-19T13:55:36.275Z,29.92
2018-07-19T13:58:06.188Z,29.26
2018-07-19T14:00:55.793Z,28.86
2018-07-19T14:03:25.951Z,30.09
2018-07-19T14:05:56.393Z,29.22
2018-07-19T14:08:26.381Z,29.86
2018-07-19T14:10:56.985Z,29.00
2018-07-19T14:13:26.843Z,29.02
2018-07-19T14:15:57.336Z,28.80
2018-07-19T14:18:27.223Z,28.11
2018-07-19T14:20:57.158Z,28.13
2018-07-19T14:23:27.240Z,28.28
2018-07-19T14:25:57.085Z,29.05
2018-07-19T14:28:27.126Z,28.35
2018-07-19T14:30:56.998Z,29.20
2018-07-19T14:33:27.886Z,29.02
2018-07-19T14:35:57.705Z,28.19
2018-07-19T14:38:27.715Z,27.65
2018-07-19T14:40:58.038Z,28.36
2018-07-19T14:43:28.300Z,27.99
2018-07-19T14:45:58.931Z,27.78
2018-07-19T14:48:28.976Z,26.98
2018-07-19T14:50:58.979Z,27.83
2018-07-19T14:53:28.995Z,27.13
2018-07-19T14:55:58.867Z,26.33
2018-07-19T14:58:28.991Z,26.74
2018-07-19T15:00:58.979Z,26.77
2018-07-19T15:03:28.861Z,26.70
2018-07-19T15:05:59.019Z,27.06
2018-07-19T15:08:28.878Z,25.96
2018-07-19T15:10:59.091Z,25.74
2018-07-19T15:13:28.977Z,26.16
2018-07-19T15:15:59.565Z,25.33
2018-07-19T15:18:29.368Z,25.75
2018-07-19T15:20:59.209Z,25.95
2018-07-19T15:23:29.163Z,26.00
2018-07-19T15:25:59.139Z,26.79
2018-07-19T15:28:28.963Z,25.98
2018-07-19T15:30:58.888Z,25.57
2018-07-19T15:33:28.713Z,26.36
2018-07-19T15:35:58.813Z,26.20
2018-07-19T15:38:28.777Z,26.47
2018-07-19T15:40:58.620Z,25.80
2018-07-19T15:43:28.429Z,25.62
2018-07-19T15:45:58.282Z,26.03
2018-07-19T15:48:27.923Z,26.51
2018-07-19T15:50:58.623Z,25.70
2018-07-19T15:53:28.467Z,25.90
2018-07-19T15:55:58.412Z,25.46
2018-07-19T15:58:28.368Z,25.67
2018-07-19T16:00:58.955Z,26.31
2018-07-19T16:03:28.795Z,25.12
2018-07-19T16:05:58.860Z,26.22
2018-07-19T16:08:28.829Z,26.02
2018-07-19T16:10:59.298Z,25.41
2018-07-19T16:13:29.181Z,26.30
2018-07-19T16:15:59.064Z,25.21
2018-07-19T16:18:28.908Z,25.80
2018-07-19T16:20:59.504Z,25.84
2018-07-19T16:23:29.328Z,25.73
2018-07-19T16:26:05.895Z,25.68
2018-07-19T16:28:35.699Z,25.78
2018-07-19T16:31:05.762Z,25.46
2018-07-19T16:33:35.576Z,25.09
2018-07-19T16:36:05.602Z,25.45
2018-07-19T16:38:35.483Z,25.51
2018-07-19T16:41:05.538Z,25.55
2018-07-19T16:43:35.629Z,25.95
2018-07-19T16:46:06.074Z,25.85
2018-07-19T16:48:36.022Z,25.67
2018-07-19T16:51:05.938Z,26.41
2018-07-19T16:53:36.076Z,25.51
2018-07-19T16:56:06.334Z,26.37
2018-07-19T16:58:36.351Z,25.55
2018-07-19T17:01:06.475Z,26.09
2018-07-19T17:03:36.706Z,26.65
2018-07-19T17:06:06.975Z,25.88
2018-07-19T17:08:37.263Z,26.27
2018-07-19T17:11:07.380Z,25.58
2018-07-19T17:13:37.607Z,25.43
2018-07-19T17:16:07.748Z,26.04
2018-07-19T17:18:38.074Z,26.36
2018-07-19T17:21:08.244Z,25.69
2018-07-19T17:23:38.589Z,25.97
2018-07-19T17:26:08.620Z,26.71
2018-07-19T17:28:38.879Z,26.01
2018-07-19T17:31:09.064Z,26.10
2018-07-19T17:33:39.604Z,26.12
2018-07-19T17:36:12.035Z,27.00
2018-07-19T17:38:42.153Z,26.81
2018-07-19T17:41:12.505Z,26.16
2018-07-19T17:43:43.153Z,26.16
2018-07-19T17:46:13.358Z,26.46
2018-07-19T17:48:44.292Z,26.67
2018-07-19T17:51:14.498Z,26.73
2018-07-19T17:53:44.745Z,26.26
2018-07-19T17:56:15.365Z,26.34
2018-07-19T17:58:45.507Z,27.15
2018-07-19T18:01:15.833Z,27.40
2018-07-19T18:03:46.384Z,26.61
2018-07-19T18:06:16.816Z,26.63
2018-07-19T18:08:47.109Z,26.66
2018-07-19T18:11:17.877Z,26.70
2018-07-19T18:13:48.115Z,26.61
2018-07-19T18:16:18.597Z,26.80
2018-07-19T18:18:49.078Z,27.54
2018-07-19T18:21:19.407Z,26.96
2018-07-19T18:23:49.631Z,26.54
2018-07-19T18:26:20.532Z,27.11
2018-07-19T18:28:51.360Z,27.30
2018-07-19T18:31:21.535Z,27.35
2018-07-19T18:33:51.523Z,27.44
2018-07-19T18:36:21.934Z,27.54
2018-07-19T18:38:52.397Z,28.13
2018-07-19T18:41:22.703Z,27.12
2018-07-19T18:43:53.598Z,27.97
2018-07-19T18:46:23.990Z,28.59
2018-07-19T18:48:54.634Z,28.57
2018-07-19T18:51:26.144Z,27.94
2018-07-19T18:53:56.571Z,28.31
2018-07-19T18:56:27.360Z,28.89
2018-07-19T18:58:57.944Z,28.95
2018-07-19T19:01:28.004Z,28.61
2018-07-19T19:03:58.299Z,28.50
2018-07-19T19:06:28.717Z,29.36
2018-07-19T19:08:59.787Z,29.26
2018-07-19T19:11:30.243Z,29.40
2018-07-19T19:14:00.485Z,29.00
2018-07-19T19:16:30.739Z,29.15
2018-07-19T19:19:00.996Z,29.79
2018-07-19T19:21:31.503Z,29.62
2018-07-19T19:24:02.087Z,30.01
2018-07-19T19:26:32.484Z,29.20
2018-07-19T19:29:03.032Z,30.24
2018-07-19T19:31:33.316Z,30.10
2018-07-19T19:34:04.010Z,29.94
2018-07-19T19:36:34.308Z,30.54
2018-07-19T19:39:06.719Z,29.76
2018-07-19T19:41:37.718Z,30.60
2018-07-19T19:44:08.088Z,30.81
2018-07-19T19:46:38.821Z,30.99
2018-07-19T19:49:09.185Z,30.58
2018-07-19T19:51:39.372Z,31.39
2018-07-19T19:54:09.782Z,31.69
2018-07-19T19:56:40.107Z,31.70
2018-07-19T19:59:10.411Z,32.14
2018-07-19T20:01:40.572Z,32.88
2018-07-19T20:04:10.873Z,32.81
2018-07-19T20:06:41.186Z,32.87
2018-07-19T20:09:12.382Z,33.60
2018-07-19T20:11:42.706Z,33.97
2018-07-19T20:14:13.015Z,33.58
2018-07-19T20:16:43.439Z,33.74
2018-07-19T20:19:13.864Z,34.31
2018-07-19T20:21:44.475Z,35.05
2018-07-19T20:24:14.633Z,34.48
2018-07-19T20:26:45.092Z,35.12
2018-07-19T20:29:15.441Z,35.60
2018-07-19T20:31:48.038Z,36.42
2018-07-19T20:34:20.563Z,36.39
2018-07-19T20:36:49.287Z,37.13
2018-07-19T20:39:19.765Z,36.83
2018-07-19T20:41:50.235Z,37.96
2018-07-19T20:44:21.887Z,38.38
2018-07-19T20:46:52.306Z,37.89
2018-07-19T20:49:22.770Z,38.87
2018-07-19T20:51:53.229Z,38.95
2018-07-19T20:54:23.566Z,38.17
2018-07-19T20:56:53.790Z,39.01
2018-07-19T20:59:24.080Z,38.46
2018-07-19T21:01:54.828Z,39.45
2018-07-19T21:04:24.935Z,39.39
2018-07-19T21:06:55.668Z,40.48
2018-07-19T21:09:26.527Z,39.94
2018-07-19T21:11:57.152Z,41.72
2018-07-19T21:14:27.665Z,41.85
2018-07-19T21:16:57.839Z,41.54
2018-07-19T21:19:28.162Z,42.25
2018-07-19T21:21:58.701Z,43.09
2018-07-19T21:24:29.155Z,43.57
2018-07-19T21:26:59.630Z,43.48
2018-07-19T21:29:30.370Z,43.78
2018-07-19T21:32:01.446Z,43.29
2018-07-19T21:34:33.476Z,44.05
2018-07-19T21:37:04.236Z,44.23
2018-07-19T21:39:34.600Z,43.98
2018-07-19T21:42:04.874Z,44.26
2018-07-19T21:44:35.409Z,44.56
2018-07-19T21:47:06.638Z,44.04
2018-07-19T21:49:37.875Z,44.79
2018-07-19T21:52:08.524Z,44.85
2018-07-19T21:54:39.505Z,44.75
2018-07-19T21:57:10.111Z,44.94
2018-07-19T21:59:40.272Z,44.52
2018-07-19T22:02:12.889Z,45.20
2018-07-19T22:04:42.980Z,45.41
2018-07-19T22:07:13.074Z,45.40
2018-07-19T22:09:43.143Z,44.82
2018-07-19T22:12:13.652Z,45.41
2018-07-19T22:14:44.127Z,45.33
2018-07-19T22:17:14.334Z,44.78
2018-07-19T22:19:44.550Z,45.60
2018-07-19T22:22:14.752Z,45.24
2018-07-19T22:24:45.322Z,45.83
2018-07-19T22:27:15.182Z,45.64
2018-07-19T22:29:45.562Z,45.74
2018-07-19T22:32:15.714Z,45.83
2018-07-19T22:34:45.847Z,46.25
2018-07-19T22:37:16.254Z,45.72
2018-07-19T22:39:46.481Z,45.64
2018-07-19T22:42:16.768Z,45.67
2018-07-19T22:44:47.109Z,46.41
2018-07-19T22:47:17.268Z,45.76
2018-07-19T22:49:47.495Z,46.16
2018-07-19T22:52:18.083Z,45.44
2018-07-19T22:54:48.429Z,46.13
2018-07-19T22:57:18.611Z,45.92
2018-07-19T22:59:48.737Z,45.29
2018-07-19T23:02:18.829Z,45.86
2018-07-19T23:04:49.067Z,46.32
2018-07-19T23:07:19.355Z,46.50
2018-07-19T23:09:49.683Z,46.50
2018-07-19T23:12:20.111Z,46.00
2018-07-19T23:14:50.474Z,45.83
2018-07-19T23:17:20.685Z,46.24
2018-07-19T23:19:51.014Z,45.27
2018-07-19T23:22:21.730Z,45.42
2018-07-19T23:24:52.261Z,44.92
2018-07-19T23:27:22.441Z,45.87
2018-07-19T23:29:52.907Z,45.43
2018-07-19T23:32:23.341Z,45.80
2018-07-19T23:34:53.687Z,45.87
2018-07-19T23:37:30.100Z,46.20
2018-07-19T23:40:10.136Z,45.97
2018-07-19T23:42:43.384Z,45.86
2018-07-19T23:46:16.808Z,46.17
2018-07-19T23:48:47.173Z,46.75
2018-07-19T23:51:17.377Z,46.81
2018-07-19T23:53:47.667Z,46.93
2018-07-19T23:56:18.083Z,47.12
2018-07-19T23:58:48.245Z,46.90
